Time;durP1;ratioP1;P1;durP2;ratioP2;P2;SDS_P1;SDS_P2;PMS_P1;PMS_P2;Temp;Humidity;BMP_temperature;BMP_pressure;BME280_temperature;BME280_humidity;BME280_pressure;Samples;Min_cycle;Max_cycle;Signal;HPM_P1;HPM_P2
2022/07/25 00:00:52;;;;;;;3.40;3.30;;;20.40;1.00;;;;;;6279929;28;20351;-54
2022/07/25 00:03:56;;;;;;;3.37;3.27;;;20.40;1.00;;;;;;6287129;28;20471;-54
2022/07/25 00:06:59;;;;;;;3.30;3.10;;;20.40;1.00;;;;;;6277239;28;20584;-55
2022/07/25 00:10:02;;;;;;;3.47;3.37;;;20.40;1.00;;;;;;6258831;28;20430;-55
2022/07/25 00:13:06;;;;;;;2.83;2.80;;;20.40;1.00;;;;;;6258634;28;20273;-55
2022/07/25 00:16:09;;;;;;;3.13;3.03;;;20.40;1.00;;;;;;6277943;28;20237;-54
2022/07/25 00:19:12;;;;;;;3.10;3.00;;;20.40;1.00;;;;;;6278817;28;20248;-54
2022/07/25 00:22:15;;;;;;;2.93;2.90;;;20.40;1.00;;;;;;6282851;28;20248;-55
2022/07/25 00:25:18;;;;;;;3.40;3.30;;;20.30;1.00;;;;;;6280329;28;20229;-55
2022/07/25 00:28:23;;;;;;;3.30;3.20;;;20.30;1.00;;;;;;6272994;28;20758;-54
2022/07/25 00:31:26;;;;;;;3.00;2.90;;;20.30;1.00;;;;;;6255288;28;20229;-54
2022/07/25 00:34:29;;;;;;;3.40;3.20;;;20.30;1.00;;;;;;6283365;28;20237;-54
2022/07/25 00:37:32;;;;;;;3.07;3.07;;;20.30;1.00;;;;;;6294339;28;20564;-55
2022/07/25 00:40:35;;;;;;;3.30;3.20;;;20.20;1.00;;;;;;6258602;28;20237;-55
2022/07/25 00:43:42;;;;;;;2.80;2.80;;;20.20;1.00;;;;;;6257524;28;20238;-54
2022/07/25 00:46:45;;;;;;;3.23;3.13;;;20.20;1.00;;;;;;6258131;28;20836;-55
2022/07/25 00:49:48;;;;;;;3.03;3.03;;;20.10;1.00;;;;;;6258739;28;20316;-53
2022/07/25 00:52:52;;;;;;;3.33;3.23;;;20.10;1.00;;;;;;6262291;28;20274;-53
2022/07/25 00:55:55;;;;;;;3.43;3.33;;;20.00;1.00;;;;;;6282240;28;20740;-54
2022/07/25 00:59:00;;;;;;;3.20;2.97;;;20.00;1.00;;;;;;6279323;28;20739;-54
2022/07/25 01:02:03;;;;;;;2.90;2.80;;;20.00;1.00;;;;;;6268953;28;20295;-55
2022/07/25 01:05:07;;;;;;;2.70;2.67;;;20.00;1.00;;;;;;6302384;28;20225;-54
2022/07/25 01:08:13;;;;;;;3.10;3.00;;;20.00;1.00;;;;;;6286502;28;20241;-55
2022/07/25 01:11:16;;;;;;;3.27;3.17;;;19.90;1.00;;;;;;6261565;28;20469;-55
2022/07/25 01:14:21;;;;;;;3.30;3.10;;;19.90;1.00;;;;;;6255338;28;20315;-55
2022/07/25 01:17:25;;;;;;;2.90;2.90;;;19.80;1.00;;;;;;6257686;28;20244;-54
2022/07/25 01:20:31;;;;;;;3.30;3.20;;;19.80;1.00;;;;;;6263330;28;20316;-54
2022/07/25 01:23:34;;;;;;;2.70;2.70;;;19.80;1.00;;;;;;6281849;28;20493;-55
2022/07/25 01:26:38;;;;;;;3.10;2.87;;;19.70;1.00;;;;;;6277221;28;20229;-54
2022/07/25 01:29:41;;;;;;;2.90;2.90;;;19.80;1.00;;;;;;6271431;28;20308;-55
2022/07/25 01:32:45;;;;;;;2.80;2.77;;;19.70;1.00;;;;;;6264271;28;20382;-53
2022/07/25 01:35:49;;;;;;;2.90;2.90;;;19.60;1.00;;;;;;6304819;28;20844;-54
2022/07/25 01:38:52;;;;;;;3.27;3.17;;;19.60;1.00;;;;;;6280038;28;20707;-55
2022/07/25 01:41:56;;;;;;;2.90;2.90;;;19.50;1.00;;;;;;6267179;28;20230;-55
2022/07/25 01:44:59;;;;;;;3.50;3.30;;;19.50;1.00;;;;;;6296705;28;20277;-55
2022/07/25 01:48:02;;;;;;;2.87;2.87;;;19.50;1.00;;;;;;6258813;28;20716;-54
2022/07/25 01:51:09;;;;;;;3.00;3.00;;;19.60;1.00;;;;;;6259744;28;20309;-54
2022/07/25 01:54:12;;;;;;;2.93;2.87;;;19.50;1.00;;;;;;6275268;28;20371;-55
2022/07/25 01:57:15;;;;;;;3.30;3.20;;;19.50;1.00;;;;;;6277359;28;20488;-54
2022/07/25 02:00:19;;;;;;;2.87;2.80;;;19.40;1.00;;;;;;6276464;28;20504;-55
2022/07/25 02:03:31;;;;;;;3.27;3.17;;;19.40;1.00;;;;;;6287005;28;20278;-55
2022/07/25 02:06:35;;;;;;;3.07;3.00;;;19.40;1.00;;;;;;6271849;28;20304;-56
2022/07/25 02:09:38;;;;;;;3.27;3.20;;;19.40;1.00;;;;;;6253498;28;20384;-54
2022/07/25 02:12:41;;;;;;;3.33;3.23;;;19.40;1.00;;;;;;6257768;28;20750;-53
2022/07/25 02:15:44;;;;;;;3.57;3.37;;;19.30;1.00;;;;;;6254856;28;20321;-55
2022/07/25 02:18:47;;;;;;;2.60;2.60;;;19.30;1.00;;;;;;6265470;28;20366;-54
2022/07/25 02:21:52;;;;;;;3.50;3.40;;;19.30;1.00;;;;;;6283124;28;20233;-54
2022/07/25 02:24:55;;;;;;;3.20;3.07;;;19.30;1.00;;;;;;6283100;28;20262;-54
2022/07/25 02:27:58;;;;;;;3.30;3.20;;;19.20;1.00;;;;;;6286254;28;20245;-55
2022/07/25 02:31:00;;;;;;;3.20;3.00;;;19.20;1.00;;;;;;6283953;28;20803;-55
2022/07/25 02:34:04;;;;;;;3.10;2.97;;;19.20;1.00;;;;;;6292264;28;20228;-54
2022/07/25 02:37:09;;;;;;;3.27;3.17;;;19.20;1.00;;;;;;6310956;28;20232;-55
2022/07/25 02:40:12;;;;;;;3.10;3.00;;;19.20;1.00;;;;;;6296361;28;20452;-55
2022/07/25 02:43:15;;;;;;;3.03;3.03;;;19.20;1.00;;;;;;6260505;28;20252;-54
2022/07/25 02:46:18;;;;;;;3.10;3.00;;;19.10;1.00;;;;;;6265923;28;20525;-54
2022/07/25 02:49:22;;;;;;;3.40;3.30;;;19.10;1.00;;;;;;6284435;28;20594;-55
2022/07/25 02:52:26;;;;;;;3.53;3.33;;;19.10;1.00;;;;;;6285778;28;20251;-54
2022/07/25 02:55:29;;;;;;;2.87;2.77;;;19.00;1.00;;;;;;6276295;28;20808;-56
2022/07/25 02:58:32;;;;;;;3.23;3.13;;;19.00;1.00;;;;;;6284007;28;20332;-54
2022/07/25 03:01:35;;;;;;;6.83;3.10;;;19.00;1.00;;;;;;6283475;28;20323;-55
2022/07/25 03:04:38;;;;;;;3.53;3.23;;;19.00;1.00;;;;;;6280053;28;20457;-54
2022/07/25 03:07:43;;;;;;;2.90;2.80;;;19.00;1.00;;;;;;6308207;28;20307;-55
2022/07/25 03:10:46;;;;;;;3.40;3.30;;;19.00;1.00;;;;;;6295751;28;20810;-53
2022/07/25 03:13:49;;;;;;;3.30;3.20;;;19.00;1.00;;;;;;6258188;28;20278;-53
2022/07/25 03:16:52;;;;;;;3.27;3.07;;;18.90;1.00;;;;;;6260740;28;20250;-53
2022/07/25 03:19:55;;;;;;;3.13;3.03;;;18.90;1.00;;;;;;6261045;28;20253;-54
2022/07/25 03:22:59;;;;;;;3.37;3.27;;;18.90;1.00;;;;;;6269430;28;20249;-54
2022/07/25 03:26:02;;;;;;;3.50;3.40;;;18.90;1.00;;;;;;6280355;28;20317;-54
2022/07/25 03:29:05;;;;;;;2.97;2.97;;;18.90;1.00;;;;;;6262641;28;20241;-54
2022/07/25 03:32:09;;;;;;;3.53;3.43;;;18.90;1.00;;;;;;6254071;28;20363;-54
2022/07/25 03:35:12;;;;;;;3.33;3.23;;;18.90;1.00;;;;;;6282598;28;20637;-55
2022/07/25 03:38:16;;;;;;;3.37;3.27;;;18.80;1.00;;;;;;6286282;28;20257;-55
2022/07/25 03:41:19;;;;;;;3.00;3.00;;;18.80;1.00;;;;;;6279567;28;20604;-55
2022/07/25 03:44:23;;;;;;;3.80;3.70;;;18.80;1.00;;;;;;6273182;28;20398;-54
2022/07/25 03:47:26;;;;;;;3.23;3.13;;;18.80;1.00;;;;;;6282649;28;20229;-54
2022/07/25 03:50:29;;;;;;;3.17;3.17;;;18.80;1.00;;;;;;6277788;28;20386;-55
2022/07/25 03:54:00;;;;;;;3.20;3.20;;;18.80;1.00;;;;;;6287237;28;20233;-55
2022/07/25 03:56:57;;;;;;;3.60;3.40;;;18.80;1.00;;;;;;6281352;28;20832;-55
2022/07/25 04:00:00;;;;;;;3.40;3.20;;;18.70;1.00;;;;;;6278651;28;20310;-55
2022/07/25 04:03:03;;;;;;;2.90;2.80;;;18.70;1.00;;;;;;6288851;28;20308;-54
2022/07/25 04:06:06;;;;;;;3.10;3.10;;;18.70;1.00;;;;;;6286417;28;20481;-54
2022/07/25 04:09:11;;;;;;;3.57;3.47;;;18.70;1.00;;;;;;6278086;28;20368;-54
2022/07/25 04:12:14;;;;;;;3.40;3.30;;;18.70;1.00;;;;;;6279951;28;20235;-54
2022/07/25 04:15:17;;;;;;;4.10;3.87;;;18.70;1.00;;;;;;6285430;28;20260;-55
2022/07/25 04:18:20;;;;;;;3.40;3.30;;;18.80;1.00;;;;;;6276306;28;20233;-55
2022/07/25 04:21:30;;;;;;;4.20;3.67;;;18.80;1.00;;;;;;6291314;28;20725;-55
2022/07/25 04:24:34;;;;;;;3.50;3.40;;;18.80;1.00;;;;;;6288581;28;20324;-55
2022/07/25 04:27:37;;;;;;;3.43;3.33;;;18.90;1.00;;;;;;6278449;28;20237;-55
2022/07/25 04:30:44;;;;;;;3.40;3.30;;;18.90;1.00;;;;;;6281416;28;20433;-54
2022/07/25 04:33:47;;;;;;;3.63;3.23;;;18.90;1.00;;;;;;6282463;28;20229;-56
2022/07/25 04:36:50;;;;;;;3.60;3.40;;;19.00;1.00;;;;;;6278955;28;20306;-53
2022/07/25 04:39:54;;;;;;;3.57;3.47;;;19.00;1.00;;;;;;6282235;28;20634;-55
2022/07/25 04:42:57;;;;;;;3.10;3.10;;;19.10;1.00;;;;;;6281838;28;20243;-55
2022/07/25 04:46:00;;;;;;;4.00;3.70;;;19.00;1.00;;;;;;6275996;28;20368;-55
2022/07/25 04:49:03;;;;;;;2.80;2.80;;;19.10;1.00;;;;;;6273160;28;20749;-54
2022/07/25 04:52:06;;;;;;;3.47;3.27;;;19.10;1.00;;;;;;6286218;28;20225;-55
2022/07/25 04:55:11;;;;;;;3.30;3.20;;;19.20;1.00;;;;;;6275226;28;20236;-54
2022/07/25 04:58:14;;;;;;;3.27;3.07;;;19.30;1.00;;;;;;6284658;28;20787;-55
2022/07/25 05:01:17;;;;;;;4.40;3.50;;;19.40;1.00;;;;;;6282587;28;20371;-56
2022/07/25 05:04:20;;;;;;;3.77;3.53;;;19.60;1.00;;;;;;6287621;28;20236;-54
2022/07/25 05:07:23;;;;;;;3.57;3.27;;;19.80;1.00;;;;;;6277724;28;20240;-54
2022/07/25 05:10:30;;;;;;;4.30;3.57;;;19.90;1.00;;;;;;6282570;28;20745;-53
2022/07/25 05:13:33;;;;;;;3.33;3.23;;;20.10;1.00;;;;;;6286756;28;20771;-55
2022/07/25 05:16:36;;;;;;;3.73;3.63;;;20.40;1.00;;;;;;6272306;28;20343;-55
2022/07/25 05:19:39;;;;;;;3.00;2.90;;;20.70;1.00;;;;;;6276448;28;20706;-55
2022/07/25 05:22:42;;;;;;;3.00;2.90;;;20.90;1.00;;;;;;6265715;28;20710;-54
2022/07/25 05:25:46;;;;;;;3.07;3.00;;;21.10;1.00;;;;;;6275426;28;20366;-54
2022/07/25 05:28:49;;;;;;;3.30;3.20;;;21.40;1.00;;;;;;6277241;28;20516;-54
2022/07/25 05:31:52;;;;;;;3.47;3.37;;;21.60;1.00;;;;;;6281369;28;20322;-55
2022/07/25 05:34:55;;;;;;;3.80;3.40;;;21.90;1.00;;;;;;6271660;28;20240;-53
2022/07/25 05:37:59;;;;;;;3.47;3.40;;;22.20;1.00;;;;;;6269967;28;20389;-54
2022/07/25 05:41:04;;;;;;;3.20;3.10;;;22.50;1.00;;;;;;6272738;28;20229;-54
2022/07/25 05:44:07;;;;;;;3.23;3.13;;;22.80;1.00;;;;;;6259288;28;20233;-53
2022/07/25 05:47:11;;;;;;;3.40;3.30;;;23.10;1.00;;;;;;6266451;28;20261;-54
2022/07/25 05:50:14;;;;;;;3.53;3.33;;;23.40;1.00;;;;;;6275102;28;21052;-54
2022/07/25 05:53:17;;;;;;;3.77;3.67;;;23.70;1.00;;;;;;6281710;28;20290;-54
2022/07/25 05:56:21;;;;;;;3.93;3.63;;;23.90;1.00;;;;;;6286621;28;20229;-54
2022/07/25 05:59:24;;;;;;;4.77;3.73;;;24.10;1.00;;;;;;6288744;28;20424;-54
2022/07/25 06:02:27;;;;;;;5.33;4.10;;;24.20;1.00;;;;;;6288555;28;20240;-53
2022/07/25 06:05:31;;;;;;;4.53;4.13;;;24.50;1.00;;;;;;6286420;28;20237;-53
2022/07/25 06:08:34;;;;;;;4.27;3.87;;;24.50;1.00;;;;;;6286444;28;20318;-55
2022/07/25 06:11:40;;;;;;;3.80;3.60;;;24.80;1.00;;;;;;6282328;28;20394;-54
2022/07/25 06:15:02;;;;;;;4.27;4.17;;;25.10;1.00;;;;;;6281297;28;20233;-55
2022/07/25 06:18:05;;;;;;;4.33;4.07;;;25.30;1.00;;;;;;6289574;28;20721;-53
2022/07/25 06:21:08;;;;;;;5.40;4.10;;;25.40;1.00;;;;;;6289492;28;20347;-55
2022/07/25 06:24:11;;;;;;;4.17;3.87;;;25.70;1.00;;;;;;6287006;28;20535;-54
2022/07/25 06:27:15;;;;;;;4.70;4.40;;;26.00;1.00;;;;;;6286726;28;20256;-55
2022/07/25 06:30:23;;;;;;;4.77;4.37;;;26.20;1.00;;;;;;6285112;28;20249;-54
2022/07/25 06:33:26;;;;;;;4.60;4.30;;;26.40;1.00;;;;;;6286143;28;20320;-53
2022/07/25 06:36:29;;;;;;;4.97;4.57;;;26.70;1.00;;;;;;6287479;28;20233;-56
2022/07/25 06:39:34;;;;;;;4.83;4.03;;;26.90;1.00;;;;;;6276726;28;20383;-55
2022/07/25 06:42:40;;;;;;;4.60;4.23;;;27.10;1.00;;;;;;6282345;28;20316;-54
2022/07/25 06:45:46;;;;;;;4.90;4.60;;;27.30;1.00;;;;;;6272808;28;20557;-53
2022/07/25 06:48:49;;;;;;;5.77;4.20;;;27.40;1.00;;;;;;6278549;28;20358;-53
2022/07/25 06:51:52;;;;;;;5.83;4.67;;;27.60;1.00;;;;;;6287802;28;20302;-54
2022/07/25 06:54:55;;;;;;;5.10;4.70;;;27.80;1.00;;;;;;6286383;28;20372;-53
2022/07/25 06:57:59;;;;;;;5.37;5.00;;;28.20;1.00;;;;;;6283381;28;20910;-54
2022/07/25 07:01:02;;;;;;;7.03;4.77;;;28.30;1.00;;;;;;6282812;28;20463;-54
2022/07/25 07:04:05;;;;;;;5.57;5.03;;;28.40;1.00;;;;;;6286556;28;20229;-53
2022/07/25 07:07:09;;;;;;;5.73;5.20;;;28.60;1.00;;;;;;6290806;28;20732;-53
2022/07/25 07:10:12;;;;;;;6.63;4.67;;;28.70;1.00;;;;;;6278075;28;20320;-54
2022/07/25 07:13:17;;;;;;;6.40;4.95;;;28.80;1.00;;;;;;6281549;28;20302;-53
2022/07/25 07:16:26;;;;;;;4.70;4.50;;;28.80;1.00;;;;;;6283888;28;20718;-54
2022/07/25 07:19:29;;;;;;;7.13;4.30;;;28.80;1.00;;;;;;6280842;28;20240;-53
2022/07/25 07:22:32;;;;;;;5.63;5.10;;;28.90;1.00;;;;;;6285270;28;20375;-53
2022/07/25 07:25:35;;;;;;;7.40;5.25;;;29.00;1.00;;;;;;6287946;28;20312;-54
2022/07/25 07:28:40;;;;;;;6.25;5.10;;;28.90;1.00;;;;;;6284433;28;20625;-53
2022/07/25 07:31:43;;;;;;;5.10;4.80;;;29.00;1.00;;;;;;6283727;28;20256;-55
2022/07/25 07:34:46;;;;;;;5.35;5.07;;;29.00;1.00;;;;;;6284723;28;20239;-54
2022/07/25 07:37:49;;;;;;;6.63;5.37;;;29.00;1.00;;;;;;6283520;28;20310;-54
2022/07/25 07:40:52;;;;;;;5.93;5.40;;;28.90;1.00;;;;;;6281105;28;20286;-56
2022/07/25 07:43:56;;;;;;;5.90;5.43;;;28.70;1.00;;;;;;6280574;28;20577;-54
2022/07/25 07:47:01;;;;;;;5.27;5.07;;;28.70;1.00;;;;;;6272368;28;20252;-55
2022/07/25 07:50:05;;;;;;;6.37;5.87;;;28.60;1.00;;;;;;6275826;28;20232;-55
2022/07/25 07:53:08;;;;;;;6.37;5.97;;;28.50;1.00;;;;;;6287960;28;20236;-53
2022/07/25 07:56:11;;;;;;;5.73;5.37;;;28.50;1.00;;;;;;6287702;28;20256;-54
2022/07/25 07:59:15;;;;;;;6.63;6.30;;;28.40;1.00;;;;;;6288974;28;20240;-53
2022/07/25 08:02:18;;;;;;;6.00;5.70;;;28.30;1.00;;;;;;6288107;28;20233;-55
2022/07/25 08:05:23;;;;;;;7.17;6.47;;;28.30;1.00;;;;;;6286796;28;20237;-53
2022/07/25 08:08:26;;;;;;;7.53;6.90;;;28.30;1.00;;;;;;6286683;28;20295;-54
2022/07/25 08:11:33;;;;;;;7.27;6.53;;;28.30;1.00;;;;;;6283711;28;20245;-54
2022/07/25 08:14:37;;;;;;;7.40;6.80;;;28.30;1.00;;;;;;6274618;28;20255;-54
2022/07/25 08:17:40;;;;;;;6.93;6.43;;;28.20;1.00;;;;;;6276157;28;20246;-52
2022/07/25 08:20:44;;;;;;;6.60;6.10;;;28.30;1.00;;;;;;6271820;28;20241;-53
2022/07/25 08:23:47;;;;;;;7.43;6.83;;;28.40;1.00;;;;;;6293038;28;20538;-53
2022/07/25 08:26:50;;;;;;;7.03;6.53;;;28.40;1.00;;;;;;6283356;28;20328;-53
2022/07/25 08:29:55;;;;;;;6.33;5.83;;;28.40;1.00;;;;;;6280778;28;20313;-53
2022/07/25 08:33:00;;;;;;;6.83;6.53;;;28.50;1.00;;;;;;6281298;28;20234;-55
2022/07/25 08:36:03;;;;;;;8.70;7.80;;;28.60;1.00;;;;;;6275778;28;20312;-54
2022/07/25 08:39:06;;;;;;;7.30;6.87;;;28.70;1.00;;;;;;6278091;28;20318;-54
2022/07/25 08:42:09;;;;;;;8.35;7.75;;;28.80;1.00;;;;;;6285281;28;20228;-54
2022/07/25 08:45:16;;;;;;;8.17;7.47;;;28.90;1.00;;;;;;6283192;28;20229;-54
2022/07/25 08:48:22;;;;;;;7.75;7.05;;;29.10;1.00;;;;;;6271531;28;20411;-54
2022/07/25 08:51:25;;;;;;;7.93;7.40;;;29.10;1.00;;;;;;6282076;28;20578;-54
2022/07/25 08:54:28;;;;;;;8.43;7.78;;;29.40;1.00;;;;;;6288886;28;20283;-57
2022/07/25 08:57:32;;;;;;;7.90;7.35;;;29.50;1.00;;;;;;6284150;28;20247;-54
2022/07/25 09:00:36;;;;;;;7.97;7.22;;;29.70;1.00;;;;;;6276034;28;20281;-55
2022/07/25 09:03:39;;;;;;;8.00;7.50;;;30.00;1.00;;;;;;6273473;28;20245;-55
2022/07/25 09:06:49;;;;;;;8.85;8.30;;;30.10;1.00;;;;;;6283242;28;20379;-55
2022/07/25 09:09:52;;;;;;;8.27;7.68;;;30.20;1.00;;;;;;6289892;28;20324;-55
2022/07/25 09:12:57;;;;;;;8.65;7.82;;;30.40;1.00;;;;;;6279040;28;20328;-54
2022/07/25 09:16:04;;;;;;;8.88;8.15;;;30.60;1.00;;;;;;6252252;28;20335;-54
2022/07/25 09:19:13;;;;;;;7.88;7.40;;;30.60;1.00;;;;;;6283472;28;20233;-54
2022/07/25 09:22:16;;;;;;;7.95;7.55;;;30.80;1.00;;;;;;6283945;28;20706;-55
2022/07/25 09:25:26;;;;;;;8.90;8.30;;;30.90;1.00;;;;;;6286513;28;20254;-53
2022/07/25 09:28:29;;;;;;;9.75;8.98;;;31.00;1.00;;;;;;6288543;28;20354;-53
2022/07/25 09:31:34;;;;;;;8.52;8.00;;;31.10;1.00;;;;;;6285785;28;20394;-54
2022/07/25 09:34:41;;;;;;;8.55;7.85;;;31.10;1.00;;;;;;6278945;28;20234;-55
2022/07/25 09:37:44;;;;;;;9.77;8.18;;;31.10;1.00;;;;;;6279186;28;20767;-56
2022/07/25 09:40:57;;;;;;;8.73;8.20;;;31.10;1.00;;;;;;6281581;28;20722;-54
2022/07/25 09:44:01;;;;;;;8.63;7.95;;;31.20;1.00;;;;;;6279211;28;20804;-56
2022/07/25 09:47:13;;;;;;;8.82;8.23;;;31.30;1.00;;;;;;6281909;28;20718;-53
2022/07/25 09:50:16;;;;;;;9.02;8.18;;;31.50;1.00;;;;;;6281870;28;20328;-54
2022/07/25 09:53:20;;;;;;;9.07;8.48;;;31.60;1.00;;;;;;6281117;28;20651;-53
2022/07/25 09:56:23;;;;;;;8.90;8.20;;;31.70;1.00;;;;;;6280154;28;20653;-55
2022/07/25 09:59:26;;;;;;;8.23;7.68;;;31.90;1.00;;;;;;6281151;28;20719;-54
2022/07/25 10:02:41;;;;;;;8.85;8.35;;;32.00;1.00;;;;;;6283532;28;21033;-55
2022/07/25 10:05:59;;;;;;;7.95;7.38;;;32.10;1.00;;;;;;6285656;28;20483;-55
2022/07/25 10:09:02;;;;;;;8.10;7.60;;;32.10;1.00;;;;;;6284329;28;20270;-53
2022/07/25 10:12:07;;;;;;;9.48;8.20;;;32.20;1.00;;;;;;6282231;28;20237;-55
2022/07/25 10:15:12;;;;;;;8.75;8.07;;;32.30;1.00;;;;;;6286026;28;20274;-53
2022/07/25 10:18:20;;;;;;;9.18;8.50;;;32.30;1.00;;;;;;6268816;28;20303;-54
2022/07/25 10:21:25;;;;;;;9.25;8.48;;;32.40;1.00;;;;;;6284376;28;20261;-54
2022/07/25 10:24:34;;;;;;;8.95;8.45;;;32.50;1.00;;;;;;6280327;28;20257;-55
2022/07/25 10:27:43;;;;;;;9.65;8.77;;;32.60;1.00;;;;;;6285392;28;20239;-53
2022/07/25 10:30:46;;;;;;;9.50;8.75;;;32.60;1.00;;;;;;6278396;28;20324;-54
2022/07/25 10:33:54;;;;;;;9.02;8.40;;;32.70;1.00;;;;;;6280715;28;20662;-55
2022/07/25 10:36:56;;;;;;;9.18;8.63;;;32.80;1.00;;;;;;6284544;28;20234;-56
2022/07/25 10:39:59;;;;;;;8.80;8.35;;;32.80;1.00;;;;;;6283092;28;20702;-55
2022/07/25 10:43:07;;;;;;;9.13;8.50;;;32.80;1.00;;;;;;6282697;28;20264;-54
2022/07/25 10:46:14;;;;;;;9.07;8.68;;;32.90;1.00;;;;;;6286777;28;20255;-55
2022/07/25 10:49:24;;;;;;;9.60;8.65;;;33.00;1.00;;;;;;6293490;28;20532;-55
2022/07/25 10:52:41;;;;;;;9.23;8.52;;;33.10;1.00;;;;;;6290917;28;20336;-55
2022/07/25 10:55:47;;;;;;;9.43;8.77;;;33.20;1.00;;;;;;6287825;28;20285;-54
2022/07/25 10:59:07;;;;;;;9.32;8.75;;;33.20;1.00;;;;;;6283804;28;20271;-54
2022/07/25 11:02:15;;;;;;;9.70;8.80;;;33.20;1.00;;;;;;6285060;28;20237;-53
2022/07/25 11:05:19;;;;;;;9.05;8.43;;;33.30;1.00;;;;;;6288669;28;20736;-53
2022/07/25 11:08:31;;;;;;;9.93;8.80;;;33.40;1.00;;;;;;6285542;28;20730;-54
2022/07/25 11:11:36;;;;;;;9.73;9.02;;;33.30;1.00;;;;;;6287046;28;20327;-54
2022/07/25 11:14:41;;;;;;;11.35;8.85;;;33.20;1.00;;;;;;6282886;28;20476;-54
2022/07/25 11:17:50;;;;;;;9.25;8.75;;;33.10;1.00;;;;;;6284700;28;20733;-52
2022/07/25 11:21:00;;;;;;;11.88;9.25;;;33.20;1.00;;;;;;6274432;28;20574;-55
2022/07/25 11:24:08;;;;;;;9.30;8.60;;;33.30;1.00;;;;;;6280263;28;20527;-54
2022/07/25 11:27:13;;;;;;;10.20;9.27;;;33.40;1.00;;;;;;6280786;28;20769;-54
2022/07/25 11:30:18;;;;;;;9.65;8.75;;;33.70;1.00;;;;;;6284517;28;20318;-53
2022/07/25 11:33:21;;;;;;;8.68;8.18;;;33.80;1.00;;;;;;6283534;28;20645;-53
2022/07/25 11:36:26;;;;;;;8.68;8.07;;;33.70;1.00;;;;;;6280707;28;20489;-53
2022/07/25 11:39:33;;;;;;;8.95;8.13;;;33.80;1.00;;;;;;6290631;28;20534;-54
2022/07/25 11:42:41;;;;;;;11.18;8.82;;;34.00;1.00;;;;;;6285128;28;20230;-55
2022/07/25 11:45:43;;;;;;;7.95;7.40;;;34.00;1.00;;;;;;6279536;28;20307;-54
2022/07/25 11:48:47;;;;;;;9.35;8.55;;;33.90;1.00;;;;;;6287851;28;20318;-54
2022/07/25 11:51:51;;;;;;;9.35;8.68;;;33.90;1.00;;;;;;6283321;28;20316;-52
2022/07/25 11:54:55;;;;;;;8.88;8.10;;;34.00;1.00;;;;;;6283050;28;20654;-53
2022/07/25 11:58:01;;;;;;;10.27;8.50;;;33.80;1.00;;;;;;6278437;28;20306;-55
2022/07/25 12:01:12;;;;;;;9.02;8.32;;;33.60;1.00;;;;;;6274334;28;20371;-55
2022/07/25 12:04:18;;;;;;;10.25;8.20;;;33.40;1.00;;;;;;6287668;28;20600;-54
2022/07/25 12:07:22;;;;;;;9.60;8.38;;;33.40;1.00;;;;;;6281754;28;20245;-55
2022/07/25 12:10:34;;;;;;;8.90;8.18;;;33.60;1.00;;;;;;6271455;28;20290;-54
2022/07/25 12:13:37;;;;;;;8.18;7.80;;;33.90;1.00;;;;;;6270326;28;20230;-55
2022/07/25 12:16:41;;;;;;;8.73;8.23;;;34.10;1.00;;;;;;6272224;28;20293;-54
2022/07/25 12:19:45;;;;;;;8.63;7.95;;;34.20;1.00;;;;;;6280781;28;20233;-54
2022/07/25 12:22:52;;;;;;;8.93;7.88;;;34.40;1.00;;;;;;6276670;28;20419;-54
2022/07/25 12:25:55;;;;;;;11.63;8.35;;;34.30;1.00;;;;;;6276437;28;20688;-56
2022/07/25 12:28:58;;;;;;;8.45;7.50;;;34.10;1.00;;;;;;6270959;28;20233;-54
2022/07/25 12:32:01;;;;;;;9.60;8.98;;;34.30;1.00;;;;;;6284859;28;20337;-54
2022/07/25 12:35:06;;;;;;;9.18;8.38;;;34.40;1.00;;;;;;6278187;28;20237;-55
2022/07/25 12:38:10;;;;;;;8.52;8.02;;;34.60;1.00;;;;;;6277253;28;20548;-55
2022/07/25 12:41:13;;;;;;;9.20;8.60;;;34.80;1.00;;;;;;6282063;28;20518;-53
2022/07/25 12:44:20;;;;;;;8.35;7.75;;;34.90;1.00;;;;;;6277114;28;20226;-54
2022/07/25 12:47:23;;;;;;;9.43;8.93;;;35.00;1.00;;;;;;6276165;28;20318;-54
2022/07/25 12:50:26;;;;;;;8.70;8.00;;;34.90;1.00;;;;;;6274900;28;20267;-53
2022/07/25 12:53:30;;;;;;;9.30;8.02;;;34.90;1.00;;;;;;6289369;28;20628;-56
2022/07/25 12:56:34;;;;;;;8.80;8.23;;;35.00;1.00;;;;;;6277830;28;20409;-54
2022/07/25 12:59:37;;;;;;;8.85;7.93;;;35.20;1.00;;;;;;6280087;28;20245;-54
2022/07/25 13:02:40;;;;;;;9.10;8.25;;;35.20;1.00;;;;;;6282435;28;20239;-54
2022/07/25 13:05:43;;;;;;;9.00;8.48;;;34.90;1.00;;;;;;6282945;28;20380;-54
2022/07/25 13:08:48;;;;;;;8.75;7.78;;;34.70;1.00;;;;;;6272537;28;20237;-55
2022/07/25 13:11:51;;;;;;;8.60;8.02;;;34.80;1.00;;;;;;6284540;28;20282;-54
2022/07/25 13:14:54;;;;;;;8.75;7.60;;;34.80;1.00;;;;;;6276846;28;20306;-53
2022/07/25 13:17:57;;;;;;;8.07;7.68;;;34.90;1.00;;;;;;6280307;28;20398;-55
2022/07/25 13:21:02;;;;;;;8.52;8.02;;;35.10;1.00;;;;;;6280935;28;20547;-56
2022/07/25 13:24:07;;;;;;;8.20;7.72;;;35.10;1.00;;;;;;6281315;28;20732;-55
2022/07/25 13:27:10;;;;;;;8.20;7.70;;;35.10;1.00;;;;;;6267695;28;20697;-53
2022/07/25 13:30:14;;;;;;;8.05;7.55;;;35.10;1.00;;;;;;6279553;28;20316;-55
2022/07/25 13:33:17;;;;;;;10.23;7.90;;;35.10;1.00;;;;;;6283084;28;20875;-54
2022/07/25 13:36:21;;;;;;;8.30;7.70;;;35.00;1.00;;;;;;6275959;28;20244;-54
2022/07/25 13:39:26;;;;;;;7.32;7.03;;;34.90;1.00;;;;;;6279239;28;20384;-54
2022/07/25 13:42:29;;;;;;;8.70;8.13;;;35.00;1.00;;;;;;6278978;28;20245;-53
2022/07/25 13:45:32;;;;;;;8.30;7.78;;;34.80;1.00;;;;;;6283069;28;20601;-54
2022/07/25 13:48:35;;;;;;;8.07;7.53;;;34.70;1.00;;;;;;6277187;28;20320;-55
2022/07/25 13:51:38;;;;;;;8.45;7.85;;;34.70;1.00;;;;;;6281397;28;20244;-54
2022/07/25 13:54:43;;;;;;;8.05;7.45;;;34.80;1.00;;;;;;6286792;28;20528;-55
2022/07/25 13:57:46;;;;;;;8.48;7.97;;;34.90;1.00;;;;;;6293443;28;20819;-57
2022/07/25 14:00:49;;;;;;;7.85;7.45;;;35.00;1.00;;;;;;6274295;28;20232;-54
2022/07/25 14:03:52;;;;;;;7.18;6.88;;;35.10;1.00;;;;;;6277925;28;20729;-52
2022/07/25 14:06:55;;;;;;;8.63;7.93;;;35.30;1.00;;;;;;6280092;28;20233;-55
2022/07/25 14:09:59;;;;;;;10.73;8.15;;;35.30;1.00;;;;;;6277684;28;20750;-53
2022/07/25 14:13:02;;;;;;;8.20;7.40;;;35.50;1.00;;;;;;6278857;28;20309;-53
2022/07/25 14:16:06;;;;;;;7.90;7.30;;;35.40;1.00;;;;;;6285501;28;20543;-53
2022/07/25 14:19:09;;;;;;;7.60;7.03;;;35.50;1.00;;;;;;6286243;28;20233;-54
2022/07/25 14:22:12;;;;;;;8.25;7.65;;;35.60;1.00;;;;;;6286698;28;20231;-53
2022/07/25 14:25:17;;;;;;;8.05;7.68;;;35.70;1.00;;;;;;6291262;28;20331;-53
2022/07/25 14:28:20;;;;;;;7.93;7.43;;;35.70;1.00;;;;;;6274906;28;20315;-53
2022/07/25 14:31:23;;;;;;;7.85;7.45;;;35.60;1.00;;;;;;6287764;28;20848;-56
2022/07/25 14:34:26;;;;;;;8.45;8.02;;;35.60;1.00;;;;;;6276261;28;20642;-54
2022/07/25 14:37:30;;;;;;;7.85;7.35;;;35.60;1.00;;;;;;6280154;28;20952;-54
2022/07/25 14:40:35;;;;;;;8.77;7.95;;;35.60;1.00;;;;;;6282160;28;20375;-54
2022/07/25 14:43:38;;;;;;;8.02;7.40;;;35.60;1.00;;;;;;6284838;28;20237;-53
2022/07/25 14:46:42;;;;;;;8.07;7.57;;;35.60;1.00;;;;;;6279628;28;20248;-54
2022/07/25 14:49:45;;;;;;;7.72;7.25;;;35.60;1.00;;;;;;6285663;28;20389;-53
2022/07/25 14:52:48;;;;;;;8.55;7.82;;;35.40;1.00;;;;;;6285262;28;20534;-54
2022/07/25 14:55:53;;;;;;;10.73;7.97;;;35.30;1.00;;;;;;6283536;28;20238;-54
2022/07/25 14:58:56;;;;;;;7.60;7.10;;;35.20;1.00;;;;;;6280673;28;20339;-54
2022/07/25 15:01:58;;;;;;;9.00;8.15;;;35.00;1.00;;;;;;6285081;28;22012;-54
2022/07/25 15:05:01;;;;;;;8.25;7.65;;;34.70;1.00;;;;;;6281254;28;20718;-55
2022/07/25 15:08:06;;;;;;;8.38;7.80;;;34.60;1.00;;;;;;6281330;28;20696;-54
2022/07/25 15:11:10;;;;;;;8.88;8.43;;;34.50;1.00;;;;;;6253015;28;20260;-54
2022/07/25 15:14:13;;;;;;;8.20;7.72;;;34.30;1.00;;;;;;6269050;28;20248;-53
2022/07/25 15:17:16;;;;;;;8.27;7.68;;;34.20;1.00;;;;;;6280914;28;20309;-52
2022/07/25 15:20:19;;;;;;;8.00;7.53;;;34.10;1.00;;;;;;6281109;28;20252;-54
2022/07/25 15:23:23;;;;;;;8.38;7.50;;;34.10;1.00;;;;;;6291523;28;20247;-54
2022/07/25 15:26:28;;;;;;;8.05;7.55;;;34.00;1.00;;;;;;6284147;28;20237;-55
2022/07/25 15:29:31;;;;;;;7.55;6.90;;;34.00;1.00;;;;;;6273758;28;20688;-54
2022/07/25 15:32:34;;;;;;;7.80;7.30;;;34.10;1.00;;;;;;6278185;28;20578;-54
2022/07/25 15:35:37;;;;;;;8.20;7.60;;;34.20;1.00;;;;;;6289467;28;20383;-53
2022/07/25 15:38:40;;;;;;;8.43;7.65;;;34.30;1.00;;;;;;6292343;28;20331;-53
2022/07/25 15:41:45;;;;;;;11.70;7.85;;;34.40;1.00;;;;;;6273833;28;20476;-53
2022/07/25 15:44:48;;;;;;;8.00;7.30;;;34.50;1.00;;;;;;6274621;28;20237;-54
2022/07/25 15:47:51;;;;;;;7.97;7.47;;;34.50;1.00;;;;;;6283458;28;20578;-53
2022/07/25 15:50:54;;;;;;;7.85;7.35;;;34.50;1.00;;;;;;6274643;28;20596;-53
2022/07/25 15:53:57;;;;;;;7.80;7.13;;;34.60;1.00;;;;;;6283307;28;20308;-53
2022/07/25 15:57:02;;;;;;;7.72;7.25;;;35.00;1.00;;;;;;6283016;28;20760;-55
2022/07/25 16:00:06;;;;;;;7.45;7.15;;;35.10;1.00;;;;;;6283813;28;20357;-53
2022/07/25 16:03:10;;;;;;;7.30;6.80;;;35.10;1.00;;;;;;6289118;28;20320;-54
2022/07/25 16:06:14;;;;;;;7.88;7.32;;;35.20;1.00;;;;;;6281872;28;20318;-53
2022/07/25 16:09:20;;;;;;;7.78;7.28;;;35.10;1.00;;;;;;6288631;28;20484;-54
2022/07/25 16:12:26;;;;;;;7.85;7.45;;;35.00;1.00;;;;;;6287113;28;20237;-55